Time;durP1;ratioP1;P1;durP2;ratioP2;P2;SDS_P1;SDS_P2;PMS_P1;PMS_P2;Temp;Humidity;BMP_temperature;BMP_pressure;BME280_temperature;BME280_humidity;BME280_pressure;Samples;Min_cycle;Max_cycle;Signal;HPM_P1;HPM_P2
2021/10/31 00:01:16;;;;;;;47.83;26.48;;;;;;;;;;5091694;28;20515;-58
2021/10/31 00:03:43;;;;;;;49.00;27.25;;;;;;;;;;5091864;28;20048;-58
2021/10/31 00:06:10;;;;;;;49.90;26.80;;;;;;;;;;5091942;28;20097;-58
2021/10/31 00:08:38;;;;;;;49.00;27.13;;;;;;;;;;5091941;28;20052;-56
2021/10/31 00:11:06;;;;;;;50.83;28.42;;;;;;;;;;5092928;28;20207;-58
2021/10/31 00:13:35;;;;;;;49.55;26.58;;;;;;;;;;5095916;28;20055;-58
2021/10/31 00:16:02;;;;;;;52.88;29.05;;;;;;;;;;5095865;28;20055;-58
2021/10/31 00:18:29;;;;;;;50.78;28.63;;;;;;;;;;5095758;28;20055;-58
2021/10/31 00:20:56;;;;;;;53.03;29.05;;;;;;;;;;5095935;28;20555;-57
2021/10/31 00:23:25;;;;;;;54.60;28.88;;;;;;;;;;5096072;28;20059;-58
2021/10/31 00:25:52;;;;;;;52.55;28.63;;;;;;;;;;5095580;28;20047;-59
2021/10/31 00:28:18;;;;;;;48.85;27.33;;;;;;;;;;5094819;28;20066;-57
2021/10/31 00:30:47;;;;;;;46.70;26.90;;;;;;;;;;5077445;28;20080;-59
2021/10/31 00:33:14;;;;;;;51.15;27.50;;;;;;;;;;5089627;28;20097;-59
2021/10/31 00:35:42;;;;;;;47.97;27.90;;;;;;;;;;5093463;28;20048;-59
2021/10/31 00:38:09;;;;;;;50.78;28.27;;;;;;;;;;5095558;28;20097;-60
2021/10/31 00:40:35;;;;;;;51.15;28.17;;;;;;;;;;5095454;28;20520;-60
2021/10/31 00:43:02;;;;;;;50.65;27.05;;;;;;;;;;5096122;28;20125;-58
2021/10/31 00:45:29;;;;;;;54.42;27.50;;;;;;;;;;5095919;28;20407;-59
2021/10/31 00:47:58;;;;;;;46.10;26.70;;;;;;;;;;5095980;28;20214;-58
2021/10/31 00:50:25;;;;;;;41.13;25.35;;;;;;;;;;5095871;28;20058;-59
2021/10/31 00:52:52;;;;;;;43.35;26.30;;;;;;;;;;5095933;28;20055;-57
2021/10/31 00:55:19;;;;;;;49.25;26.17;;;;;;;;;;5095691;28;20105;-60
2021/10/31 00:57:47;;;;;;;45.67;27.38;;;;;;;;;;5095827;28;20056;-58
2021/10/31 01:00:15;;;;;;;45.22;26.13;;;;;;;;;;5095753;28;20051;-58
2021/10/31 01:02:42;;;;;;;47.30;27.65;;;;;;;;;;5095606;28;20047;-58
2021/10/31 01:05:14;;;;;;;46.65;27.17;;;;;;;;;;5095528;28;20511;-58
2021/10/31 01:07:57;;;;;;;50.80;28.35;;;;;;;;;;5095634;28;20493;-59
2021/10/31 01:10:38;;;;;;;53.97;29.67;;;;;;;;;;5095592;28;20137;-59
2021/10/31 01:13:25;;;;;;;55.80;30.83;;;;;;;;;;5095755;28;20424;-59
2021/10/31 01:16:00;;;;;;;50.75;28.85;;;;;;;;;;5095231;28;20050;-59
2021/10/31 01:19:02;;;;;;;51.25;28.17;;;;;;;;;;5095658;28;20048;-58
2021/10/31 01:21:39;;;;;;;48.83;27.00;;;;;;;;;;5095702;28;20044;-57
2021/10/31 01:24:36;;;;;;;48.58;26.70;;;;;;;;;;5094473;28;20412;-58
2021/10/31 01:27:14;;;;;;;47.58;25.65;;;;;;;;;;5061372;28;20054;-57
2021/10/31 01:29:53;;;;;;;42.20;25.73;;;;;;;;;;5095179;28;20084;-58
2021/10/31 01:32:45;;;;;;;44.17;25.73;;;;;;;;;;5095099;28;20044;-58
2021/10/31 01:35:20;;;;;;;46.22;25.73;;;;;;;;;;5094954;28;20421;-59
2021/10/31 01:37:57;;;;;;;43.45;25.27;;;;;;;;;;5094658;28;20450;-59
2021/10/31 01:40:31;;;;;;;42.65;24.58;;;;;;;;;;5094844;28;20131;-58
2021/10/31 01:43:08;;;;;;;45.83;27.15;;;;;;;;;;5095030;28;20410;-59
2021/10/31 01:45:42;;;;;;;43.17;25.23;;;;;;;;;;5094831;28;20084;-58
2021/10/31 01:48:21;;;;;;;47.28;26.73;;;;;;;;;;5094577;28;20056;-59
2021/10/31 01:50:49;;;;;;;39.83;25.05;;;;;;;;;;5094847;28;20048;-59
2021/10/31 01:53:26;;;;;;;44.63;24.08;;;;;;;;;;5094594;28;20052;-59
2021/10/31 01:55:57;;;;;;;45.10;25.48;;;;;;;;;;5095084;28;20181;-59
2021/10/31 01:58:24;;;;;;;;;;;;;;;;;;5095306;28;20056;-59
2021/10/31 02:00:53;;;;;;;43.83;26.23;;;;;;;;;;5094569;28;19927;-58
2021/10/31 02:03:22;;;;;;;44.08;24.63;;;;;;;;;;5094252;28;20048;-58
2021/10/31 02:05:51;;;;;;;43.63;24.77;;;;;;;;;;5094565;28;20044;-59
2021/10/31 02:08:23;;;;;;;42.60;24.67;;;;;;;;;;5094307;28;20051;-58
2021/10/31 02:10:52;;;;;;;44.15;24.65;;;;;;;;;;5094275;28;20394;-59
2021/10/31 02:13:20;;;;;;;44.88;25.48;;;;;;;;;;5094194;28;20051;-58
2021/10/31 02:15:51;;;;;;;41.70;25.58;;;;;;;;;;5094133;28;20070;-59
2021/10/31 02:18:20;;;;;;;40.72;23.85;;;;;;;;;;5094149;28;20116;-59
2021/10/31 02:20:50;;;;;;;41.35;24.42;;;;;;;;;;5094249;28;20052;-59
2021/10/31 02:23:19;;;;;;;42.45;24.40;;;;;;;;;;5093965;28;20409;-58
2021/10/31 02:25:47;;;;;;;42.20;25.58;;;;;;;;;;5093934;28;20093;-56
2021/10/31 02:28:15;;;;;;;46.20;25.58;;;;;;;;;;5093952;28;20135;-55
2021/10/31 02:30:42;;;;;;;40.83;24.20;;;;;;;;;;5094075;28;20044;-57
2021/10/31 02:33:10;;;;;;;44.00;24.65;;;;;;;;;;5093741;28;20052;-59
2021/10/31 02:35:38;;;;;;;42.92;25.25;;;;;;;;;;5093938;28;20056;-59
2021/10/31 02:38:05;;;;;;;44.22;24.83;;;;;;;;;;5093455;28;20048;-59
2021/10/31 02:40:36;;;;;;;45.00;25.55;;;;;;;;;;5093806;28;20492;-57
2021/10/31 02:43:03;;;;;;;;;;;;;;;;;;5094329;28;20518;-58
2021/10/31 02:45:30;;;;;;;40.28;24.15;;;;;;;;;;5093671;28;19920;-59
2021/10/31 02:48:01;;;;;;;45.40;23.60;;;;;;;;;;5093896;28;20048;-58
2021/10/31 02:50:32;;;;;;;40.42;23.85;;;;;;;;;;5093935;28;20065;-55
2021/10/31 02:53:19;;;;;;;36.40;23.13;;;;;;;;;;5093362;28;20047;-58
2021/10/31 02:55:59;;;;;;;38.28;23.95;;;;;;;;;;5093376;28;20044;-57
2021/10/31 02:58:35;;;;;;;42.85;22.98;;;;;;;;;;5093573;28;20548;-57
2021/10/31 03:01:04;;;;;;;33.47;21.30;;;;;;;;;;5092898;28;20421;-56
2021/10/31 03:03:32;;;;;;;31.60;20.65;;;;;;;;;;5092819;28;20052;-54
2021/10/31 03:06:00;;;;;;;37.83;22.23;;;;;;;;;;5092544;28;20040;-58
2021/10/31 03:08:28;;;;;;;34.40;22.42;;;;;;;;;;5092430;28;20408;-59
2021/10/31 03:10:58;;;;;;;36.83;20.75;;;;;;;;;;5092639;28;20044;-58
2021/10/31 03:13:26;;;;;;;29.27;18.60;;;;;;;;;;5092488;28;20044;-60
2021/10/31 03:15:53;;;;;;;30.58;18.95;;;;;;;;;;5092411;28;20050;-60
2021/10/31 03:18:20;;;;;;;32.22;19.23;;;;;;;;;;5092366;28;20048;-59
2021/10/31 03:20:48;;;;;;;33.28;19.33;;;;;;;;;;5092437;28;20142;-60
2021/10/31 03:23:15;;;;;;;30.25;17.42;;;;;;;;;;5092344;28;20044;-59
2021/10/31 03:25:42;;;;;;;30.42;18.15;;;;;;;;;;5092327;28;20647;-59
2021/10/31 03:28:11;;;;;;;30.40;17.90;;;;;;;;;;5092246;28;20056;-59
2021/10/31 03:30:38;;;;;;;28.17;17.23;;;;;;;;;;5092121;28;20058;-59
2021/10/31 03:33:05;;;;;;;27.92;17.23;;;;;;;;;;5092306;28;20040;-58
2021/10/31 03:35:32;;;;;;;27.15;17.48;;;;;;;;;;5092282;28;20048;-59
2021/10/31 03:37:59;;;;;;;28.35;17.65;;;;;;;;;;5092506;28;20374;-59
2021/10/31 03:40:26;;;;;;;29.00;18.65;;;;;;;;;;5091906;28;20048;-60
2021/10/31 03:42:53;;;;;;;34.78;18.83;;;;;;;;;;5092163;28;20048;-58
2021/10/31 03:45:22;;;;;;;26.85;17.38;;;;;;;;;;5091350;28;20420;-59
2021/10/31 03:47:49;;;;;;;28.10;17.27;;;;;;;;;;5092208;28;20420;-60
2021/10/31 03:50:17;;;;;;;26.13;16.25;;;;;;;;;;5091833;28;20052;-59
2021/10/31 03:52:44;;;;;;;29.20;17.85;;;;;;;;;;5091724;28;20044;-58
2021/10/31 03:55:12;;;;;;;27.35;17.70;;;;;;;;;;5091608;28;20050;-60
2021/10/31 03:57:40;;;;;;;29.63;17.58;;;;;;;;;;5092171;28;20071;-60
2021/10/31 04:00:09;;;;;;;25.48;16.30;;;;;;;;;;5091962;28;20052;-60
2021/10/31 04:02:39;;;;;;;24.95;16.88;;;;;;;;;;5091841;28;20052;-61
2021/10/31 04:05:07;;;;;;;29.10;16.27;;;;;;;;;;5091571;28;20051;-59
2021/10/31 04:07:34;;;;;;;25.92;16.30;;;;;;;;;;5092095;28;20052;-59
2021/10/31 04:10:01;;;;;;;25.23;15.98;;;;;;;;;;5091633;28;20052;-60
2021/10/31 04:12:28;;;;;;;29.70;17.63;;;;;;;;;;5092120;28;20750;-60
2021/10/31 04:14:55;;;;;;;26.40;16.50;;;;;;;;;;5091604;28;20055;-60
2021/10/31 04:17:22;;;;;;;25.45;17.50;;;;;;;;;;5091572;28;20048;-60
2021/10/31 04:19:50;;;;;;;28.85;18.23;;;;;;;;;;5091554;28;20051;-59
2021/10/31 04:22:17;;;;;;;26.65;17.20;;;;;;;;;;5091439;28;20050;-59
2021/10/31 04:24:44;;;;;;;27.52;16.77;;;;;;;;;;5091461;28;20044;-61
2021/10/31 04:27:11;;;;;;;28.75;17.70;;;;;;;;;;5091535;28;20055;-60
2021/10/31 04:29:38;;;;;;;27.98;17.40;;;;;;;;;;5091631;28;20056;-59
2021/10/31 04:32:06;;;;;;;28.48;16.67;;;;;;;;;;5091687;28;20058;-59
2021/10/31 04:34:33;;;;;;;27.15;16.40;;;;;;;;;;5091558;28;20419;-60
2021/10/31 04:37:02;;;;;;;27.35;16.63;;;;;;;;;;5091395;28;20052;-61
2021/10/31 04:39:29;;;;;;;29.33;16.48;;;;;;;;;;5091531;28;20083;-60
2021/10/31 04:42:02;;;;;;;26.13;16.45;;;;;;;;;;5091529;28;20054;-60
2021/10/31 04:44:29;;;;;;;26.60;16.25;;;;;;;;;;5091674;28;20051;-60
2021/10/31 04:46:56;;;;;;;25.13;16.30;;;;;;;;;;5091562;28;20404;-56
2021/10/31 04:49:23;;;;;;;26.02;16.48;;;;;;;;;;5091581;28;20074;-60
2021/10/31 04:51:51;;;;;;;28.35;16.65;;;;;;;;;;5113884;22;20047;-79
2021/10/31 04:54:19;;;;;;;26.02;16.80;;;;;;;;;;5099540;28;20470;-79
2021/10/31 04:56:46;;;;;;;24.98;15.57;;;;;;;;;;5103932;28;20062;-80
2021/10/31 04:59:13;;;;;;;26.42;16.27;;;;;;;;;;5104098;28;20044;-80
2021/10/31 05:01:40;;;;;;;23.60;15.00;;;;;;;;;;5103912;28;20422;-80
2021/10/31 05:04:07;;;;;;;25.13;15.68;;;;;;;;;;5107082;28;20074;-80
2021/10/31 05:06:36;;;;;;;24.75;16.10;;;;;;;;;;5108895;28;20058;-81
2021/10/31 05:09:03;;;;;;;22.93;16.33;;;;;;;;;;5112220;28;20052;-81
2021/10/31 05:11:31;;;;;;;22.25;14.52;;;;;;;;;;5112686;28;20044;-81
2021/10/31 05:13:58;;;;;;;21.83;13.85;;;;;;;;;;5112434;28;20048;-81
2021/10/31 05:16:25;;;;;;;23.38;13.77;;;;;;;;;;5112530;28;20052;-81
2021/10/31 05:18:52;;;;;;;21.15;14.30;;;;;;;;;;5111543;28;20048;-81
2021/10/31 05:21:19;;;;;;;24.02;13.57;;;;;;;;;;5110914;28;20044;-81
2021/10/31 05:23:46;;;;;;;20.10;14.18;;;;;;;;;;5108416;28;20153;-80
2021/10/31 05:26:14;;;;;;;23.77;14.35;;;;;;;;;;5106097;28;20054;-80
2021/10/31 05:28:42;;;;;;;20.67;13.95;;;;;;;;;;5105442;28;20434;-80
2021/10/31 05:31:09;;;;;;;20.17;13.30;;;;;;;;;;5104584;28;20064;-81
2021/10/31 05:33:36;;;;;;;19.90;13.65;;;;;;;;;;5104654;28;20047;-81
2021/10/31 05:36:04;;;;;;;21.55;13.38;;;;;;;;;;5104130;28;20044;-81
2021/10/31 05:38:31;;;;;;;20.45;12.68;;;;;;;;;;5107746;28;20096;-81
2021/10/31 05:40:58;;;;;;;21.67;12.82;;;;;;;;;;5114417;28;20044;-80
2021/10/31 05:43:25;;;;;;;25.08;13.57;;;;;;;;;;5111795;28;20040;-81
2021/10/31 05:45:56;;;;;;;18.52;12.88;;;;;;;;;;5106966;28;20044;-81
2021/10/31 05:48:24;;;;;;;22.13;14.35;;;;;;;;;;5104195;28;20055;-81
2021/10/31 05:50:54;;;;;;;21.40;12.98;;;;;;;;;;5102591;28;20062;-81
2021/10/31 05:53:24;;;;;;;22.08;13.10;;;;;;;;;;5101928;28;20451;-81
2021/10/31 05:55:51;;;;;;;19.42;12.30;;;;;;;;;;5102880;28;20048;-81
2021/10/31 05:58:18;;;;;;;23.75;14.43;;;;;;;;;;5102912;28;20409;-81
2021/10/31 06:00:47;;;;;;;21.83;12.63;;;;;;;;;;5102792;28;20068;-81
2021/10/31 06:03:15;;;;;;;18.52;12.98;;;;;;;;;;5103440;28;20070;-81
2021/10/31 06:05:44;;;;;;;19.45;12.25;;;;;;;;;;5103685;28;20605;-80
2021/10/31 06:08:16;;;;;;;22.33;12.50;;;;;;;;;;5101884;28;20058;-80
2021/10/31 06:10:43;;;;;;;19.05;12.65;;;;;;;;;;5102198;28;20502;-81
2021/10/31 06:13:11;;;;;;;20.08;11.65;;;;;;;;;;5098221;28;20040;-79
2021/10/31 06:15:38;;;;;;;20.15;12.43;;;;;;;;;;5099401;28;20059;-79
2021/10/31 06:18:06;;;;;;;23.73;11.57;;;;;;;;;;5099406;28;20490;-79
2021/10/31 06:20:34;;;;;;;18.75;12.15;;;;;;;;;;5101462;28;20056;-80
2021/10/31 06:23:01;;;;;;;18.50;11.95;;;;;;;;;;5101006;28;20111;-81
2021/10/31 06:25:28;;;;;;;17.83;10.73;;;;;;;;;;5100724;28;20052;-80
2021/10/31 06:27:56;;;;;;;22.63;12.63;;;;;;;;;;5100540;28;20138;-80
2021/10/31 06:30:23;;;;;;;17.40;10.88;;;;;;;;;;5099636;28;20048;-81
2021/10/31 06:32:51;;;;;;;19.00;10.10;;;;;;;;;;5099107;28;20048;-81
2021/10/31 06:35:18;;;;;;;19.55;12.10;;;;;;;;;;5099169;28;20476;-81
2021/10/31 06:37:48;;;;;;;21.77;12.55;;;;;;;;;;5096958;28;20435;-81
2021/10/31 06:40:15;;;;;;;19.88;11.88;;;;;;;;;;5096739;28;20058;-79
2021/10/31 06:42:44;;;;;;;18.02;11.50;;;;;;;;;;5096105;28;20543;-82
2021/10/31 06:45:11;;;;;;;19.88;10.60;;;;;;;;;;5099295;28;20054;-79
2021/10/31 06:47:38;;;;;;;18.10;10.52;;;;;;;;;;5103361;28;20051;-80
2021/10/31 06:50:06;;;;;;;21.77;10.60;;;;;;;;;;5101327;28;20071;-79
2021/10/31 06:52:33;;;;;;;15.73;10.48;;;;;;;;;;5102845;28;20048;-80
2021/10/31 06:55:01;;;;;;;18.52;10.20;;;;;;;;;;5104924;28;20044;-81
2021/10/31 06:57:28;;;;;;;19.17;10.80;;;;;;;;;;5106061;28;20054;-81
2021/10/31 06:59:56;;;;;;;17.17;9.90;;;;;;;;;;5108403;28;20044;-81
2021/10/31 07:02:22;;;;;;;16.52;9.30;;;;;;;;;;5111024;28;20124;-81
2021/10/31 07:04:51;;;;;;;33.25;18.70;;;;;;;;;;5110005;28;20383;-81
2021/10/31 07:07:20;;;;;;;25.20;14.98;;;;;;;;;;5107234;28;20103;-80
2021/10/31 07:09:46;;;;;;;21.27;13.15;;;;;;;;;;5106707;28;20044;-81
2021/10/31 07:12:15;;;;;;;20.90;12.52;;;;;;;;;;5108091;28;20055;-81
2021/10/31 07:14:42;;;;;;;29.17;16.25;;;;;;;;;;5105699;28;20044;-81
2021/10/31 07:17:09;;;;;;;19.23;12.30;;;;;;;;;;5106685;28;20044;-81
2021/10/31 07:19:36;;;;;;;24.25;13.25;;;;;;;;;;5106272;28;20157;-81
2021/10/31 07:22:04;;;;;;;28.02;13.65;;;;;;;;;;5107085;28;20048;-81
2021/10/31 07:24:32;;;;;;;25.52;13.48;;;;;;;;;;5106421;28;20044;-81
2021/10/31 07:26:59;;;;;;;20.08;11.55;;;;;;;;;;5105847;28;20577;-81
2021/10/31 07:29:28;;;;;;;18.13;10.93;;;;;;;;;;5106852;28;20113;-81
2021/10/31 07:31:56;;;;;;;18.75;10.73;;;;;;;;;;5106704;28;20056;-82
2021/10/31 07:34:25;;;;;;;17.52;9.95;;;;;;;;;;5107020;28;20456;-82
2021/10/31 07:36:54;;;;;;;18.27;10.20;;;;;;;;;;5106863;28;20406;-82
2021/10/31 07:39:21;;;;;;;16.48;9.68;;;;;;;;;;5107147;28;20052;-81
2021/10/31 07:41:49;;;;;;;24.98;14.52;;;;;;;;;;5107759;28;20043;-81
2021/10/31 07:44:17;;;;;;;20.27;10.77;;;;;;;;;;5106366;28;20067;-82
2021/10/31 07:46:46;;;;;;;27.20;15.48;;;;;;;;;;5105738;28;20088;-80
2021/10/31 07:49:13;;;;;;;23.67;14.32;;;;;;;;;;5106097;28;20048;-82
2021/10/31 07:51:40;;;;;;;34.70;20.20;;;;;;;;;;5106045;28;20044;-81
2021/10/31 07:54:07;;;;;;;28.35;16.88;;;;;;;;;;5106818;28;20051;-81
2021/10/31 07:56:37;;;;;;;21.63;12.50;;;;;;;;;;5106834;28;20048;-81
2021/10/31 07:59:04;;;;;;;20.23;12.10;;;;;;;;;;5104854;28;20481;-81
2021/10/31 08:01:31;;;;;;;19.42;10.65;;;;;;;;;;5100433;28;20047;-81
2021/10/31 08:03:59;;;;;;;17.25;9.40;;;;;;;;;;5099685;28;20058;-80
2021/10/31 08:06:26;;;;;;;15.70;9.60;;;;;;;;;;5099441;28;20048;-81
2021/10/31 08:08:53;;;;;;;18.27;9.52;;;;;;;;;;5101175;28;20044;-79
2021/10/31 08:11:21;;;;;;;13.43;8.70;;;;;;;;;;5104832;28;20560;-80
2021/10/31 08:13:53;;;;;;;18.02;10.43;;;;;;;;;;5105403;28;20483;-80
2021/10/31 08:16:22;;;;;;;16.42;10.20;;;;;;;;;;5114905;28;20052;-80
2021/10/31 08:18:50;;;;;;;16.83;10.57;;;;;;;;;;5111053;28;20048;-80
2021/10/31 08:21:18;;;;;;;17.33;9.80;;;;;;;;;;5111235;28;20032;-81
2021/10/31 08:23:46;;;;;;;17.15;9.98;;;;;;;;;;5115850;28;20157;-81
2021/10/31 08:26:13;;;;;;;17.77;10.07;;;;;;;;;;5115353;28;20055;-81
2021/10/31 08:28:41;;;;;;;18.23;10.35;;;;;;;;;;5114101;28;20044;-79
2021/10/31 08:31:08;;;;;;;20.45;10.77;;;;;;;;;;5114000;28;20044;-79
2021/10/31 08:33:43;;;;;;;15.73;11.05;;;;;;;;;;5117353;28;20052;-81
2021/10/31 08:36:12;;;;;;;15.75;9.20;;;;;;;;;;5119102;28;20036;-80
2021/10/31 08:38:44;;;;;;;16.63;9.25;;;;;;;;;;5118285;28;20083;-80
2021/10/31 08:41:11;;;;;;;18.27;9.35;;;;;;;;;;5117814;28;20101;-81
2021/10/31 08:43:40;;;;;;;13.63;8.18;;;;;;;;;;5116966;28;20066;-79
2021/10/31 08:46:07;;;;;;;11.90;8.43;;;;;;;;;;5117521;28;20048;-80
2021/10/31 08:48:37;;;;;;;12.02;6.95;;;;;;;;;;5118276;28;20059;-80
2021/10/31 08:51:08;;;;;;;11.52;6.43;;;;;;;;;;5117508;28;20035;-81
2021/10/31 08:53:35;;;;;;;13.55;7.35;;;;;;;;;;5118064;28;20078;-81
2021/10/31 08:56:11;;;;;;;13.85;6.65;;;;;;;;;;5118719;28;20058;-82
2021/10/31 08:58:39;;;;;;;12.77;6.13;;;;;;;;;;5116199;28;20075;-79
2021/10/31 09:01:05;;;;;;;10.55;6.43;;;;;;;;;;5107859;28;20050;-80
2021/10/31 09:03:33;;;;;;;15.93;7.03;;;;;;;;;;5105005;28;20044;-81
2021/10/31 09:06:00;;;;;;;12.55;6.85;;;;;;;;;;5096485;28;20140;-81
2021/10/31 09:08:29;;;;;;;10.05;5.50;;;;;;;;;;5081937;28;20052;-79
2021/10/31 09:10:56;;;;;;;10.77;5.82;;;;;;;;;;5081582;28;20048;-80
2021/10/31 09:13:24;;;;;;;12.45;6.25;;;;;;;;;;5081928;28;20045;-80
2021/10/31 09:15:52;;;;;;;12.15;6.55;;;;;;;;;;5081066;28;20051;-81
2021/10/31 09:18:21;;;;;;;11.52;6.18;;;;;;;;;;5081427;28;20106;-79
2021/10/31 09:20:48;;;;;;;12.07;6.13;;;;;;;;;;5080904;28;20052;-80
2021/10/31 09:23:15;;;;;;;9.23;5.95;;;;;;;;;;5080830;28;20071;-80
2021/10/31 09:25:42;;;;;;;10.02;5.05;;;;;;;;;;5079893;28;20048;-81
2021/10/31 09:28:09;;;;;;;11.43;6.85;;;;;;;;;;5079290;28;20106;-81
2021/10/31 09:30:40;;;;;;;9.85;5.82;;;;;;;;;;5079620;28;20045;-81
2021/10/31 09:33:07;;;;;;;;;;;;;;;;;;5079359;28;20048;-82
2021/10/31 09:35:42;;;;;;;9.05;4.35;;;;;;;;;;5078410;28;20029;-80
2021/10/31 09:38:09;;;;;;;8.45;4.30;;;;;;;;;;5078624;28;20084;-80
2021/10/31 09:40:39;;;;;;;8.02;4.65;;;;;;;;;;5078859;28;20047;-80
2021/10/31 09:43:06;;;;;;;7.97;4.03;;;;;;;;;;5077651;28;20048;-80
2021/10/31 09:45:35;;;;;;;9.60;4.25;;;;;;;;;;5077090;28;20051;-81
2021/10/31 09:48:06;;;;;;;8.10;4.00;;;;;;;;;;5077994;28;20041;-81
2021/10/31 09:50:36;;;;;;;8.30;4.75;;;;;;;;;;5077742;28;20419;-81
2021/10/31 09:53:03;;;;;;;8.70;4.50;;;;;;;;;;5078769;28;20468;-81
2021/10/31 09:55:31;;;;;;;9.50;4.50;;;;;;;;;;5078005;28;20048;-81
2021/10/31 09:58:00;;;;;;;27.75;14.18;;;;;;;;;;5077831;28;20040;-81
2021/10/31 10:00:36;;;;;;;13.50;6.85;;;;;;;;;;5078597;28;20431;-81
2021/10/31 10:03:22;;;;;;;9.68;5.32;;;;;;;;;;5077434;28;20483;-81
2021/10/31 10:06:07;;;;;;;8.65;4.53;;;;;;;;;;5077928;28;20048;-81
2021/10/31 10:08:34;;;;;;;8.88;4.45;;;;;;;;;;5077932;28;20656;-81
2021/10/31 10:11:01;;;;;;;9.68;4.88;;;;;;;;;;5077793;28;20045;-81
2021/10/31 10:13:31;;;;;;;9.10;4.93;;;;;;;;;;5077375;28;20523;-81
2021/10/31 10:16:20;;;;;;;9.18;4.60;;;;;;;;;;5077637;28;20054;-81
2021/10/31 10:18:49;;;;;;;8.38;4.57;;;;;;;;;;5077155;28;20399;-80
2021/10/31 10:21:20;;;;;;;8.48;4.13;;;;;;;;;;5076895;28;20052;-80
2021/10/31 10:23:50;;;;;;;6.35;4.00;;;;;;;;;;5077217;28;20106;-80
2021/10/31 10:26:31;;;;;;;9.25;4.82;;;;;;;;;;5078642;28;20574;-82
2021/10/31 10:29:14;;;;;;;9.80;4.82;;;;;;;;;;5080415;28;20052;-80
2021/10/31 10:31:42;;;;;;;8.85;4.20;;;;;;;;;;5080039;28;20541;-80
2021/10/31 10:34:12;;;;;;;8.68;4.30;;;;;;;;;;5078394;28;20049;-80
2021/10/31 10:36:41;;;;;;;10.80;4.35;;;;;;;;;;5076779;28;20067;-80
2021/10/31 10:39:10;;;;;;;10.35;4.57;;;;;;;;;;5076758;28;20258;-81
2021/10/31 10:41:43;;;;;;;9.33;4.87;;;;;;;;;;5077099;28;20108;-81
2021/10/31 10:44:17;;;;;;;10.30;4.50;;;;;;;;;;5077701;28;20056;-80
2021/10/31 10:46:45;;;;;;;9.73;4.70;;;;;;;;;;5076979;28;20128;-80
2021/10/31 10:49:17;;;;;;;6.85;4.28;;;;;;;;;;5076141;28;20041;-80
2021/10/31 10:51:45;;;;;;;7.90;3.95;;;;;;;;;;5076136;28;20086;-80
2021/10/31 10:54:14;;;;;;;8.05;3.85;;;;;;;;;;5083860;28;20112;-80
2021/10/31 10:57:02;;;;;;;7.53;4.15;;;;;;;;;;5082998;28;20059;-80
2021/10/31 10:59:33;;;;;;;8.90;3.95;;;;;;;;;;5079968;28;20052;-83
2021/10/31 11:02:11;;;;;;;7.95;4.18;;;;;;;;;;5080230;28;20485;-79
2021/10/31 11:04:45;;;;;;;7.63;4.43;;;;;;;;;;5081480;28;20101;-86
2021/10/31 11:07:29;;;;;;;9.05;4.10;;;;;;;;;;5077820;28;20053;-89
2021/10/31 11:09:56;;;;;;;15.95;6.35;;;;;;;;;;5079167;28;20045;-83
2021/10/31 11:12:42;;;;;;;58.30;22.15;;;;;;;;;;5081230;28;20074;-85
2021/10/31 11:15:18;;;;;;;21.73;8.15;;;;;;;;;;5080294;28;20052;-83
2021/10/31 11:17:46;;;;;;;61.13;21.90;;;;;;;;;;5078141;28;20045;-85
2021/10/31 11:20:19;;;;;;;50.53;19.35;;;;;;;;;;5076990;28;20059;-82
2021/10/31 11:22:50;;;;;;;36.00;14.35;;;;;;;;;;5076505;28;20064;-81
2021/10/31 11:25:30;;;;;;;37.88;15.43;;;;;;;;;;5080920;28;20090;-79
2021/10/31 11:28:12;;;;;;;21.80;9.38;;;;;;;;;;5083229;28;20141;-85
2021/10/31 11:30:39;;;;;;;10.88;6.07;;;;;;;;;;5082359;28;20056;-78
2021/10/31 11:33:08;;;;;;;11.20;6.72;;;;;;;;;;5084105;28;20476;-78
2021/10/31 11:35:40;;;;;;;15.73;7.93;;;;;;;;;;5084985;28;20045;-79
2021/10/31 11:38:10;;;;;;;14.30;6.35;;;;;;;;;;5079959;28;20045;-78
2021/10/31 11:40:39;;;;;;;12.05;5.43;;;;;;;;;;5078370;28;20139;-78
2021/10/31 11:43:15;;;;;;;9.95;5.30;;;;;;;;;;5079486;28;20105;-78
2021/10/31 11:45:48;;;;;;;11.98;5.47;;;;;;;;;;5081331;28;20049;-78
2021/10/31 11:48:18;;;;;;;11.88;5.03;;;;;;;;;;5082680;28;20047;-79
2021/10/31 11:51:10;;;;;;;12.70;5.45;;;;;;;;;;5082563;28;20055;-77
2021/10/31 11:53:41;;;;;;;11.45;5.95;;;;;;;;;;5084953;28;20044;-79
2021/10/31 11:56:19;;;;;;;11.05;4.80;;;;;;;;;;5085937;28;20044;-80
2021/10/31 11:58:54;;;;;;;9.23;5.05;;;;;;;;;;5086379;28;20074;-80
2021/10/31 12:01:33;;;;;;;12.77;5.55;;;;;;;;;;5086092;28;20064;-79
2021/10/31 12:04:04;;;;;;;9.68;5.45;;;;;;;;;;5085601;28;20049;-79
2021/10/31 12:06:47;;;;;;;8.13;4.75;;;;;;;;;;5081385;28;20084;-78
2021/10/31 12:09:31;;;;;;;10.02;4.22;;;;;;;;;;5076283;28;20408;-80
2021/10/31 12:12:19;;;;;;;9.77;5.00;;;;;;;;;;5083006;28;20032;-80
2021/10/31 12:14:52;;;;;;;10.43;4.70;;;;;;;;;;5076709;28;20041;-78
2021/10/31 12:17:21;;;;;;;13.90;5.35;;;;;;;;;;5079128;28;20101;-85
2021/10/31 12:19:50;;;;;;;10.90;4.35;;;;;;;;;;5083093;28;20457;-83
2021/10/31 12:22:23;;;;;;;9.02;4.00;;;;;;;;;;5077047;28;20052;-85
2021/10/31 12:24:52;;;;;;;11.52;4.60;;;;;;;;;;5075385;28;20055;-81
2021/10/31 12:27:21;;;;;;;9.35;4.30;;;;;;;;;;5079591;28;20381;-83
2021/10/31 12:29:55;;;;;;;7.35;4.00;;;;;;;;;;5082666;28;20052;-85
2021/10/31 12:32:32;;;;;;;9.43;4.68;;;;;;;;;;5080947;28;20518;-85
2021/10/31 12:34:59;;;;;;;7.38;3.58;;;;;;;;;;5076000;28;20052;-85
2021/10/31 12:37:31;;;;;;;7.47;4.00;;;;;;;;;;5076998;28;20169;-83
2021/10/31 12:39:59;;;;;;;8.95;4.53;;;;;;;;;;5077826;28;20564;-86
2021/10/31 12:42:31;;;;;;;8.88;4.60;;;;;;;;;;5076146;28;20091;-85
2021/10/31 12:45:00;;;;;;;8.38;4.68;;;;;;;;;;5076018;28;20059;-85
2021/10/31 12:47:40;;;;;;;8.20;3.92;;;;;;;;;;5077570;28;20098;-86
2021/10/31 12:50:10;;;;;;;11.30;5.17;;;;;;;;;;5076736;28;20483;-85
2021/10/31 12:52:41;;;;;;;9.50;4.15;;;;;;;;;;5076363;28;20051;-85
2021/10/31 12:55:10;;;;;;;8.75;4.13;;;;;;;;;;5076209;28;20114;-85
2021/10/31 12:57:39;;;;;;;9.27;4.55;;;;;;;;;;5075636;28;20051;-85
2021/10/31 13:00:08;;;;;;;8.75;4.15;;;;;;;;;;5077128;28;20048;-83
2021/10/31 13:02:48;;;;;;;8.02;4.25;;;;;;;;;;5078210;28;20053;-83
2021/10/31 13:05:22;;;;;;;11.00;5.18;;;;;;;;;;5079728;28;20044;-83
2021/10/31 13:07:53;;;;;;;9.85;4.97;;;;;;;;;;5079046;28;20419;-83
2021/10/31 13:10:23;;;;;;;7.65;4.13;;;;;;;;;;5076097;28;20574;-83
2021/10/31 13:12:51;;;;;;;9.40;4.65;;;;;;;;;;5081847;28;20445;-84
2021/10/31 13:15:20;;;;;;;17.60;5.47;;;;;;;;;;5078830;28;20456;-84
2021/10/31 13:17:50;;;;;;;13.27;5.03;;;;;;;;;;5078349;28;20045;-84
2021/10/31 13:20:21;;;;;;;12.53;5.13;;;;;;;;;;5082268;28;20060;-82
2021/10/31 13:22:57;;;;;;;12.73;5.70;;;;;;;;;;5088699;28;20285;-83
2021/10/31 13:25:35;;;;;;;12.57;6.63;;;;;;;;;;5087785;28;20400;-84
2021/10/31 13:28:02;;;;;;;24.98;9.75;;;;;;;;;;5089428;28;20053;-83
2021/10/31 13:30:35;;;;;;;8.65;4.50;;;;;;;;;;5079281;28;20109;-86
2021/10/31 13:33:03;;;;;;;9.02;4.30;;;;;;;;;;5082513;28;20045;-84
2021/10/31 13:35:30;;;;;;;6.97;3.67;;;;;;;;;;5082763;28;20048;-85
2021/10/31 13:38:04;;;;;;;22.33;5.45;;;;;;;;;;5081650;28;20049;-85
2021/10/31 13:40:35;;;;;;;10.45;6.03;;;;;;;;;;5081808;28;20052;-84
2021/10/31 13:43:02;;;;;;;9.82;5.80;;;;;;;;;;5082952;28;20045;-82
2021/10/31 13:45:29;;;;;;;13.25;7.50;;;;;;;;;;5086919;28;20526;-84
2021/10/31 13:47:57;;;;;;;12.35;7.15;;;;;;;;;;5086356;28;20106;-85
2021/10/31 13:50:26;;;;;;;11.27;6.57;;;;;;;;;;5081343;28;20048;-84
2021/10/31 13:52:57;;;;;;;14.77;7.38;;;;;;;;;;5081262;28;20048;-83
2021/10/31 13:55:28;;;;;;;17.27;6.95;;;;;;;;;;5084039;28;20052;-83
2021/10/31 13:57:57;;;;;;;11.82;7.40;;;;;;;;;;5087799;28;20068;-82
2021/10/31 14:00:26;;;;;;;11.98;7.38;;;;;;;;;;5083486;28;20055;-84
2021/10/31 14:02:54;;;;;;;13.40;7.07;;;;;;;;;;5083516;28;20045;-81
2021/10/31 14:05:23;;;;;;;16.73;7.50;;;;;;;;;;5079600;28;20067;-82
2021/10/31 14:07:52;;;;;;;11.73;7.00;;;;;;;;;;5078488;28;20545;-82
2021/10/31 14:10:22;;;;;;;10.13;6.30;;;;;;;;;;5079448;28;20055;-82
2021/10/31 14:13:04;;;;;;;11.60;7.13;;;;;;;;;;5079712;28;20102;-82
2021/10/31 14:15:31;;;;;;;12.10;6.40;;;;;;;;;;5079701;28;20152;-82
2021/10/31 14:17:59;;;;;;;12.80;6.82;;;;;;;;;;5082659;28;20048;-82
2021/10/31 14:20:32;;;;;;;10.43;6.32;;;;;;;;;;5084572;28;20048;-83
2021/10/31 14:22:59;;;;;;;10.82;7.07;;;;;;;;;;5083963;28;20127;-82
2021/10/31 14:25:27;;;;;;;10.48;7.03;;;;;;;;;;5085641;28;20586;-83
2021/10/31 14:28:10;;;;;;;12.63;7.30;;;;;;;;;;5084585;28;20072;-86
2021/10/31 14:30:37;;;;;;;14.60;7.63;;;;;;;;;;5081514;28;20049;-84
2021/10/31 14:33:06;;;;;;;14.15;8.35;;;;;;;;;;5081720;28;20045;-84
2021/10/31 14:35:42;;;;;;;17.60;10.57;;;;;;;;;;5082714;28;20048;-84
2021/10/31 14:38:31;;;;;;;18.75;10.00;;;;;;;;;;5085569;28;20041;-82
2021/10/31 14:41:05;;;;;;;14.30;8.83;;;;;;;;;;5080514;28;20052;-83
2021/10/31 14:43:36;;;;;;;16.38;9.90;;;;;;;;;;5084410;28;20771;-83